Etusivu
METAR-TAF:

METAR-TAF

Lentoasemat :

Bessemer, Alabama, Yhdysvallat

Leveyspiiri: 33-18-45N, Pituuspiiri: 086-55-35W, korkeus merenpinnasta: 213 m

Tämänhetkinen sää

Tämä raportti tehtiin 58 minuuttia sitten, kello 18.56 UTC
Tuuli 5 kn eri suunnista
Lämpötila 28°C
Kosteus 62%
Ilmanpaine 1016 hPa
Näkyvyys: 16.1 km
Muutamia pilviä 3600 ft:n korkeudessa

METAR: KEKY 281856Z AUTO VRB05KT 10SM FEW036 28/20 A3000 RMK AO2 SLP006 T02780200

Aika: 14:54 (19:54 UTC)


TAF: puuttuu

Säähavainnot ja -ennusteet yli 4000 lentoasemalta (METAR- ja TAF-raportit).

Käytössä olevat sääasemat on merkitty karttaan keltaisilla ja punaisilla pisteillä.

Aseta hiiri pisteen päälle nähdäksesi sääaseman nimen.

Klikkaa sitten nähdäksesi säähavainnot ja -ennusteet.

Kartan vaihtaminen: klikkaa mustalla rastilla varustettuja vihreitä pisteitä, niin voit zoomata sisään; viivalla varustettua vihreää pistettä, niin voit zoomata ulos tai vihreitä nuolia, niin pääset viereisille kartoille.


METAR-TAF: